Time;durP1;ratioP1;P1;durP2;ratioP2;P2;SDS_P1;SDS_P2;PMS_P1;PMS_P2;Temp;Humidity;BMP_temperature;BMP_pressure;BME280_temperature;BME280_humidity;BME280_pressure;Samples;Min_cycle;Max_cycle;Signal;HPM_P1;HPM_P2
2022/09/25 00:01:14;;;;;;;15.70;13.20;;;13.30;1.00;;;;;;4988496;28;20539;-54
2022/09/25 00:03:40;;;;;;;14.93;13.43;;;13.20;1.00;;;;;;4995858;28;20651;-55
2022/09/25 00:06:08;;;;;;;14.67;13.27;;;13.20;1.00;;;;;;4988836;28;20445;-55
2022/09/25 00:08:35;;;;;;;13.93;12.70;;;13.20;1.00;;;;;;4993533;28;20448;-54
2022/09/25 00:11:12;;;;;;;13.30;12.00;;;13.10;1.00;;;;;;4986953;28;20445;-53
2022/09/25 00:13:39;;;;;;;13.67;12.37;;;13.10;1.00;;;;;;4988736;28;20474;-56
2022/09/25 00:16:05;;;;;;;12.77;11.47;;;13.10;1.00;;;;;;4988235;28;20468;-55
2022/09/25 00:21:16;;;;;;;14.17;12.80;;;13.20;1.00;;;;;;4987576;28;22993;-54
2022/09/25 00:23:43;;;;;;;13.20;11.80;;;13.30;1.00;;;;;;4987250;28;20466;-56
2022/09/25 00:26:10;;;;;;;13.23;12.03;;;13.30;1.00;;;;;;4987945;28;20427;-56
2022/09/25 00:28:36;;;;;;;13.57;12.27;;;13.30;1.00;;;;;;4988687;28;20916;-54
2022/09/25 00:31:04;;;;;;;14.13;12.60;;;13.30;1.00;;;;;;4983025;28;20435;-55
2022/09/25 00:33:31;;;;;;;13.33;12.03;;;13.40;1.00;;;;;;4987095;28;20977;-54
2022/09/25 00:36:03;;;;;;;13.20;12.03;;;13.40;1.00;;;;;;4981932;28;20460;-56
2022/09/25 00:38:28;;;;;;;14.20;12.70;;;13.40;1.00;;;;;;4980184;28;20910;-55
2022/09/25 00:40:54;;;;;;;14.60;13.10;;;13.40;1.00;;;;;;4981869;28;20466;-56
2022/09/25 00:43:49;;;;;;;15.00;13.40;;;13.40;1.00;;;;;;4989030;28;20230;-55
2022/09/25 00:46:26;;;;;;;13.63;12.17;;;13.20;1.00;;;;;;4988320;28;20528;-55
2022/09/25 00:49:12;;;;;;;12.80;11.60;;;13.30;1.00;;;;;;4987769;28;20985;-55
2022/09/25 00:51:52;;;;;;;13.27;12.00;;;13.30;1.00;;;;;;4977967;28;20431;-53
2022/09/25 00:54:32;;;;;;;14.37;13.00;;;13.30;1.00;;;;;;4991205;28;20529;-55
2022/09/25 00:57:01;;;;;;;15.03;13.37;;;13.30;1.00;;;;;;4987449;28;20518;-54
2022/09/25 00:59:31;;;;;;;14.70;13.30;;;13.30;1.00;;;;;;4988664;28;20445;-55
2022/09/25 01:01:58;;;;;;;14.17;12.87;;;13.30;1.00;;;;;;4988447;28;20491;-56
2022/09/25 01:04:27;;;;;;;13.47;12.10;;;13.30;1.00;;;;;;4985644;28;20420;-55
2022/09/25 01:06:52;;;;;;;14.83;11.57;;;13.40;1.00;;;;;;4985662;28;20469;-54
2022/09/25 01:09:18;;;;;;;14.17;12.73;;;13.40;1.00;;;;;;4988797;28;20523;-52
2022/09/25 01:11:44;;;;;;;13.93;12.50;;;13.30;1.00;;;;;;4989541;28;20327;-56
2022/09/25 01:14:10;;;;;;;13.37;12.13;;;13.30;1.00;;;;;;4988548;28;20528;-55
2022/09/25 01:16:45;;;;;;;13.57;12.17;;;13.40;1.00;;;;;;4985392;28;20284;-55
2022/09/25 01:19:46;;;;;;;12.90;11.70;;;13.50;1.00;;;;;;4988391;28;20833;-55
2022/09/25 01:22:22;;;;;;;12.57;11.30;;;13.40;1.00;;;;;;4986200;28;20459;-56
2022/09/25 01:25:17;;;;;;;13.10;11.80;;;13.40;1.00;;;;;;4991675;28;20866;-55
2022/09/25 01:27:47;;;;;;;11.80;10.80;;;13.40;1.00;;;;;;4993166;28;20464;-56
2022/09/25 01:30:17;;;;;;;12.70;11.60;;;13.40;1.00;;;;;;4990736;28;20503;-55
2022/09/25 01:32:55;;;;;;;11.50;10.50;;;13.40;1.00;;;;;;4992445;28;20462;-56
2022/09/25 01:35:27;;;;;;;13.63;11.40;;;13.50;1.00;;;;;;4992136;28;20443;-55
2022/09/25 01:38:23;;;;;;;13.70;11.97;;;13.50;1.00;;;;;;4991526;28;20430;-54
2022/09/25 01:41:01;;;;;;;10.90;9.90;;;13.50;1.00;;;;;;4950817;28;20604;-54
2022/09/25 01:43:31;;;;;;;12.57;11.37;;;13.60;1.00;;;;;;4988910;28;20455;-55
2022/09/25 01:46:08;;;;;;;13.17;11.77;;;13.60;1.00;;;;;;4990491;28;20441;-56
2022/09/25 01:48:37;;;;;;;13.43;9.87;;;13.70;1.00;;;;;;4990920;28;20437;-55
2022/09/25 01:51:18;;;;;;;12.80;11.50;;;13.70;1.00;;;;;;4991687;28;20427;-55
2022/09/25 01:53:52;;;;;;;11.40;10.30;;;13.70;1.00;;;;;;4992749;28;20459;-55
2022/09/25 01:56:37;;;;;;;12.50;11.23;;;13.70;1.00;;;;;;4972385;28;20517;-55
2022/09/25 01:59:26;;;;;;;12.50;11.17;;;13.70;1.00;;;;;;4989763;28;20441;-55
2022/09/25 02:01:54;;;;;;;13.27;12.07;;;13.70;1.00;;;;;;4986675;28;20452;-51
2022/09/25 02:04:33;;;;;;;11.87;10.80;;;13.80;1.00;;;;;;4987858;28;20446;-54
2022/09/25 02:07:03;;;;;;;12.47;11.37;;;13.90;1.00;;;;;;4993627;28;20527;-55
2022/09/25 02:09:37;;;;;;;12.50;11.30;;;13.80;1.00;;;;;;4987099;28;20450;-55
2022/09/25 02:12:11;;;;;;;12.63;11.43;;;13.90;1.00;;;;;;4992324;28;20419;-53
2022/09/25 02:14:47;;;;;;;12.17;11.07;;;13.90;1.00;;;;;;4991360;28;20994;-55
2022/09/25 02:20:30;;;;;;;13.23;11.30;;;13.90;1.00;;;;;;4989888;28;20962;-56
2022/09/25 02:22:54;;;;;;;13.93;10.73;;;13.90;1.00;;;;;;4992313;28;20544;-56
2022/09/25 02:25:41;;;;;;;16.57;10.60;;;13.90;1.00;;;;;;4986877;28;21148;-56
2022/09/25 02:28:07;;;;;;;11.70;10.73;;;13.90;1.00;;;;;;4990643;28;20461;-55
2022/09/25 02:30:33;;;;;;;12.63;11.40;;;;;;;;;;5003689;28;20407;-56
2022/09/25 02:32:59;;;;;;;11.97;10.80;;;13.80;1.00;;;;;;4994212;28;20249;-54
2022/09/25 02:35:25;;;;;;;11.87;10.77;;;13.90;1.00;;;;;;5011730;28;20494;-55
2022/09/25 02:37:55;;;;;;;11.80;10.47;;;13.80;1.00;;;;;;4997362;28;20935;-53
2022/09/25 02:40:32;;;;;;;10.93;9.80;;;13.90;1.00;;;;;;4994317;28;20224;-53
2022/09/25 02:43:10;;;;;;;10.57;9.67;;;13.70;1.00;;;;;;4991725;28;20473;-53
2022/09/25 02:46:08;;;;;;;10.47;9.60;;;13.70;1.00;;;;;;4992561;28;20795;-54
2022/09/25 02:48:44;;;;;;;11.70;10.57;;;13.70;1.00;;;;;;4989811;28;20523;-55
2022/09/25 02:51:29;;;;;;;11.00;10.00;;;13.70;1.00;;;;;;4989908;28;20439;-55
2022/09/25 02:54:19;;;;;;;10.87;9.83;;;13.80;1.00;;;;;;4991680;28;20459;-55
2022/09/25 02:57:10;;;;;;;11.13;10.03;;;13.80;1.00;;;;;;4975771;28;20424;-53
2022/09/25 02:59:40;;;;;;;10.00;9.10;;;13.80;1.00;;;;;;4989145;28;20677;-55
2022/09/25 03:02:08;;;;;;;10.70;9.60;;;13.80;1.00;;;;;;4989590;28;20463;-56
2022/09/25 03:04:37;;;;;;;9.43;8.53;;;13.80;1.00;;;;;;4991644;28;20816;-56
2022/09/25 03:07:04;;;;;;;10.77;9.77;;;13.80;1.00;;;;;;4994551;28;20811;-53
2022/09/25 03:09:35;;;;;;;11.57;9.50;;;13.80;1.00;;;;;;4992284;28;20458;-53
2022/09/25 03:12:03;;;;;;;10.07;9.17;;;13.80;1.00;;;;;;4990159;28;20695;-54
2022/09/25 03:14:30;;;;;;;11.17;9.50;;;13.80;1.00;;;;;;4988700;28;20456;-56
2022/09/25 03:16:58;;;;;;;10.77;9.80;;;13.80;1.00;;;;;;4988798;28;20427;-55
2022/09/25 03:19:28;;;;;;;10.80;9.87;;;14.60;1.00;;;;;;4991970;28;20438;-55
2022/09/25 03:21:53;;;;;;;11.27;10.17;;;13.90;1.00;;;;;;4988622;28;20437;-55
2022/09/25 03:24:19;;;;;;;11.13;9.70;;;14.00;1.00;;;;;;5002611;28;20429;-55
2022/09/25 03:26:45;;;;;;;10.67;9.67;;;13.90;1.00;;;;;;4991141;28;20194;-56
2022/09/25 03:29:13;;;;;;;10.83;9.80;;;13.90;1.00;;;;;;4990898;28;20408;-56
2022/09/25 03:31:41;;;;;;;9.87;8.90;;;13.90;1.00;;;;;;4986471;28;20416;-55
2022/09/25 03:34:06;;;;;;;11.73;9.93;;;13.90;1.00;;;;;;4991512;28;20404;-55
2022/09/25 03:36:33;;;;;;;10.80;9.80;;;13.90;1.00;;;;;;4986616;28;20775;-54
2022/09/25 03:38:59;;;;;;;11.30;10.20;;;13.90;1.00;;;;;;4989142;28;20506;-54
2022/09/25 03:41:31;;;;;;;11.23;10.20;;;13.80;1.00;;;;;;4990316;28;20521;-55
2022/09/25 03:43:57;;;;;;;10.07;9.17;;;13.80;1.00;;;;;;4986389;28;20464;-57
2022/09/25 03:46:31;;;;;;;12.20;10.30;;;13.80;1.00;;;;;;4986293;28;20424;-58
2022/09/25 03:48:57;;;;;;;10.30;9.30;;;13.80;1.00;;;;;;4987776;28;20908;-55
2022/09/25 03:51:24;;;;;;;10.37;9.43;;;13.90;1.00;;;;;;4987548;28;20494;-54
2022/09/25 03:53:51;;;;;;;10.63;9.10;;;13.80;1.00;;;;;;4991332;28;20511;-53
2022/09/25 03:56:20;;;;;;;10.10;9.10;;;13.80;1.00;;;;;;4985381;28;20508;-55
2022/09/25 03:58:47;;;;;;;10.80;9.70;;;13.90;1.00;;;;;;4989327;28;20428;-55
2022/09/25 04:01:14;;;;;;;11.33;10.40;;;13.90;1.00;;;;;;4987353;28;20456;-55
2022/09/25 04:03:40;;;;;;;9.63;8.73;;;13.80;1.00;;;;;;4990320;28;20799;-53
2022/09/25 04:06:07;;;;;;;11.37;10.27;;;13.90;1.00;;;;;;4990425;28;20810;-58
2022/09/25 04:08:35;;;;;;;11.40;10.30;;;13.90;1.00;;;;;;4990766;28;20416;-56
2022/09/25 04:11:01;;;;;;;10.53;9.70;;;13.80;1.00;;;;;;4989391;28;20415;-55
2022/09/25 04:13:32;;;;;;;10.17;9.20;;;13.80;1.00;;;;;;4987131;28;20524;-55
2022/09/25 04:16:00;;;;;;;11.40;10.30;;;13.80;1.00;;;;;;4989964;28;20948;-55
2022/09/25 04:18:30;;;;;;;10.00;9.20;;;13.80;1.00;;;;;;4989219;28;21055;-55
2022/09/25 04:20:57;;;;;;;10.40;9.43;;;13.80;1.00;;;;;;4989777;28;20440;-55
2022/09/25 04:23:22;;;;;;;10.17;9.17;;;13.80;1.00;;;;;;4986537;28;21212;-55
2022/09/25 04:25:48;;;;;;;10.73;9.63;;;13.80;1.00;;;;;;4989555;28;20457;-55
2022/09/25 04:28:14;;;;;;;12.13;10.93;;;13.80;1.00;;;;;;4987375;28;20186;-54
2022/09/25 04:30:39;;;;;;;12.57;11.17;;;13.80;1.00;;;;;;4987135;28;20212;-53
2022/09/25 04:35:49;;;;;;;10.90;10.00;;;13.80;1.00;;;;;;4985394;28;20197;-53
2022/09/25 04:38:15;;;;;;;10.33;9.30;;;13.80;1.00;;;;;;4985623;28;20446;-55
2022/09/25 04:40:40;;;;;;;12.20;10.07;;;13.70;1.00;;;;;;4989996;28;20189;-54
2022/09/25 04:43:06;;;;;;;11.17;10.17;;;13.70;1.00;;;;;;4983604;28;20414;-54
2022/09/25 04:45:33;;;;;;;10.67;9.70;;;13.70;1.00;;;;;;4988488;28;20190;-56
2022/09/25 04:48:00;;;;;;;10.60;9.60;;;13.70;1.00;;;;;;4988836;28;20853;-55
2022/09/25 04:50:27;;;;;;;12.57;10.10;;;13.70;1.00;;;;;;4989618;28;20423;-57
2022/09/25 04:52:53;;;;;;;11.10;10.10;;;13.70;1.00;;;;;;4974375;28;20457;-54
2022/09/25 04:55:23;;;;;;;9.87;9.07;;;13.80;1.00;;;;;;4995988;28;20498;-54
2022/09/25 04:58:00;;;;;;;10.30;9.30;;;13.70;1.00;;;;;;4990062;28;20424;-55
2022/09/25 05:00:29;;;;;;;11.37;10.20;;;13.80;1.00;;;;;;4990998;28;20466;-53
2022/09/25 05:02:55;;;;;;;10.23;9.43;;;13.80;1.00;;;;;;4990321;28;20859;-54
2022/09/25 05:05:21;;;;;;;10.50;9.50;;;13.80;1.00;;;;;;4993943;28;20448;-53
2022/09/25 05:07:57;;;;;;;12.13;10.97;;;13.80;1.00;;;;;;4994329;28;20434;-54
2022/09/25 05:10:28;;;;;;;11.67;9.80;;;13.90;1.00;;;;;;4985513;28;20252;-54
2022/09/25 05:12:59;;;;;;;10.80;9.70;;;13.80;1.00;;;;;;4984146;28;23481;-55
2022/09/25 05:15:27;;;;;;;10.40;9.40;;;13.80;1.00;;;;;;4989922;28;20524;-56
2022/09/25 05:18:20;;;;;;;10.87;9.87;;;13.90;1.00;;;;;;4985268;28;20450;-52
2022/09/25 05:20:45;;;;;;;11.20;10.10;;;13.90;1.00;;;;;;4991086;28;20410;-55
2022/09/25 05:23:12;;;;;;;10.23;9.33;;;13.80;1.00;;;;;;4991828;28;20560;-54
2022/09/25 05:25:37;;;;;;;11.97;10.40;;;13.90;1.00;;;;;;4975229;28;20190;-52
2022/09/25 05:28:03;;;;;;;13.13;10.40;;;14.00;1.00;;;;;;4992956;28;20416;-55
2022/09/25 05:30:32;;;;;;;10.33;9.30;;;13.90;1.00;;;;;;4994047;28;20478;-55
2022/09/25 05:32:57;;;;;;;11.00;10.00;;;13.90;1.00;;;;;;4987188;28;20194;-54
2022/09/25 05:35:25;;;;;;;10.70;9.67;;;13.90;1.00;;;;;;4993932;28;20917;-56
2022/09/25 05:37:50;;;;;;;12.13;10.10;;;13.90;1.00;;;;;;4991533;28;20578;-53
2022/09/25 05:40:19;;;;;;;11.47;10.00;;;13.90;1.00;;;;;;4991995;28;20458;-54
2022/09/25 05:42:46;;;;;;;11.30;10.20;;;13.90;1.00;;;;;;4987293;28;20807;-55
2022/09/25 05:45:16;;;;;;;10.37;9.33;;;13.90;1.00;;;;;;4993113;28;20987;-54
2022/09/25 05:47:42;;;;;;;11.37;10.37;;;14.00;1.00;;;;;;4991982;28;20778;-55
2022/09/25 05:50:10;;;;;;;10.73;9.70;;;14.10;1.00;;;;;;4993912;28;20441;-55
2022/09/25 05:52:37;;;;;;;10.53;9.60;;;14.10;1.00;;;;;;4986850;28;20457;-54
2022/09/25 05:55:05;;;;;;;11.20;8.60;;;14.20;1.00;;;;;;4988638;28;20513;-54
2022/09/25 05:57:31;;;;;;;9.73;8.83;;;14.20;1.00;;;;;;4993147;28;20498;-53
2022/09/25 05:59:58;;;;;;;10.47;9.47;;;14.30;1.00;;;;;;4990294;28;20953;-54
2022/09/25 06:02:23;;;;;;;11.03;9.30;;;14.30;1.00;;;;;;4992617;28;20463;-56
2022/09/25 06:04:49;;;;;;;9.83;9.00;;;14.30;1.00;;;;;;4988120;28;20424;-55
2022/09/25 06:07:15;;;;;;;10.30;9.40;;;14.30;1.00;;;;;;4991281;28;20633;-55
2022/09/25 06:09:40;;;;;;;10.53;9.53;;;14.30;1.00;;;;;;4989494;28;20227;-55
2022/09/25 06:12:06;;;;;;;10.97;9.77;;;14.40;1.00;;;;;;4989381;28;20201;-53
2022/09/25 06:14:34;;;;;;;10.73;9.43;;;14.50;1.00;;;;;;4987228;28;20197;-53
2022/09/25 06:17:00;;;;;;;10.77;9.47;;;14.50;1.00;;;;;;4987558;28;20251;-56
2022/09/25 06:19:28;;;;;;;9.83;8.93;;;14.50;1.00;;;;;;4984811;28;20448;-55
2022/09/25 06:21:59;;;;;;;9.57;8.57;;;14.60;1.00;;;;;;4985183;28;20831;-56
2022/09/25 06:24:24;;;;;;;11.00;9.47;;;14.60;1.00;;;;;;4986425;28;20428;-56
2022/09/25 06:26:50;;;;;;;10.23;9.30;;;14.70;1.00;;;;;;4986321;28;20435;-55
2022/09/25 06:29:15;;;;;;;10.80;9.70;;;14.70;1.00;;;;;;4991547;28;20189;-55
2022/09/25 06:31:41;;;;;;;9.70;8.67;;;14.80;1.00;;;;;;4987212;28;20772;-56
2022/09/25 06:34:10;;;;;;;11.43;10.33;;;14.90;1.00;;;;;;4986210;28;20198;-55
2022/09/25 06:36:36;;;;;;;12.77;9.70;;;14.90;1.00;;;;;;4987427;28;20206;-53
2022/09/25 06:39:02;;;;;;;10.40;9.33;;;15.00;1.00;;;;;;4990718;28;20538;-54
2022/09/25 06:41:28;;;;;;;10.97;9.83;;;14.90;1.00;;;;;;4986817;28;20454;-53
2022/09/25 06:43:54;;;;;;;11.70;10.60;;;14.90;1.00;;;;;;4989955;28;20234;-56
2022/09/25 06:46:19;;;;;;;11.93;10.63;;;14.90;1.00;;;;;;4988243;28;20453;-53
2022/09/25 06:48:53;;;;;;;10.53;9.53;;;14.80;1.00;;;;;;4991067;28;20848;-54
2022/09/25 06:51:21;;;;;;;10.50;9.50;;;14.80;1.00;;;;;;4986215;28;20588;-53
2022/09/25 06:53:51;;;;;;;11.67;10.47;;;14.80;1.00;;;;;;4983025;28;20461;-56
2022/09/25 06:56:17;;;;;;;11.17;9.90;;;14.70;1.00;;;;;;4987556;28;20845;-55
2022/09/25 06:58:43;;;;;;;10.10;9.20;;;14.70;1.00;;;;;;4986762;28;20458;-54
2022/09/25 07:01:10;;;;;;;10.03;9.10;;;14.50;1.00;;;;;;4971559;28;20213;-56
2022/09/25 07:03:46;;;;;;;10.53;9.53;;;;;;;;;;4987887;28;20209;-54
2022/09/25 07:06:20;;;;;;;11.20;10.10;;;14.60;1.00;;;;;;4990322;28;20479;-53
2022/09/25 07:08:47;;;;;;;11.73;10.60;;;14.50;1.00;;;;;;4989472;28;20442;-55
2022/09/25 07:11:15;;;;;;;10.57;9.43;;;14.50;1.00;;;;;;4991492;28;20492;-55
2022/09/25 07:13:41;;;;;;;11.83;10.00;;;14.50;1.00;;;;;;4990343;28;20423;-56
2022/09/25 07:16:11;;;;;;;11.00;9.33;;;12.60;1.00;;;;;;4990058;28;20431;-55
2022/09/25 07:18:37;;;;;;;12.47;9.27;;;14.50;1.00;;;;;;4990903;28;20191;-54
2022/09/25 07:21:12;;;;;;;11.57;10.50;;;14.60;1.00;;;;;;4982993;28;20436;-56
2022/09/25 07:23:38;;;;;;;11.23;10.30;;;14.50;1.00;;;;;;4990035;28;20608;-55
2022/09/25 07:26:08;;;;;;;10.13;9.20;;;14.50;1.00;;;;;;4990031;28;20412;-54
2022/09/25 07:28:33;;;;;;;12.37;10.30;;;14.50;1.00;;;;;;4989456;28;20508;-55
2022/09/25 07:31:15;;;;;;;11.10;10.10;;;14.50;1.00;;;;;;4990536;28;20407;-55
2022/09/25 07:33:41;;;;;;;11.10;10.00;;;14.50;1.00;;;;;;4987919;28;20268;-52
2022/09/25 07:36:08;;;;;;;11.07;9.97;;;14.50;1.00;;;;;;4990544;28;21004;-54
2022/09/25 07:38:35;;;;;;;11.17;10.00;;;14.60;1.00;;;;;;4987120;28;20423;-55
2022/09/25 07:41:05;;;;;;;11.77;10.57;;;14.70;1.00;;;;;;4988621;28;20431;-53
2022/09/25 07:43:32;;;;;;;10.70;9.60;;;14.70;1.00;;;;;;4988389;28;20587;-53
2022/09/25 07:45:57;;;;;;;12.33;9.90;;;14.80;1.00;;;;;;4987525;28;20421;-54
2022/09/25 07:48:23;;;;;;;10.73;9.40;;;14.80;1.00;;;;;;4989487;28;20417;-55
2022/09/25 07:50:49;;;;;;;12.20;9.97;;;14.90;1.00;;;;;;4986922;28;20932;-55
2022/09/25 07:53:17;;;;;;;11.13;10.13;;;14.90;1.00;;;;;;4990287;28;20202;-55
2022/09/25 07:55:43;;;;;;;10.80;9.80;;;15.00;1.00;;;;;;4986569;28;20180;-54
2022/09/25 07:58:09;;;;;;;11.80;10.40;;;15.10;1.00;;;;;;4989419;28;20445;-56
2022/09/25 08:00:34;;;;;;;11.63;10.43;;;15.30;1.00;;;;;;4985945;28;20931;-53
2022/09/25 08:03:01;;;;;;;10.53;9.43;;;15.60;1.00;;;;;;4989902;28;20261;-53
2022/09/25 08:05:26;;;;;;;10.17;9.30;;;16.10;1.00;;;;;;4989993;28;20194;-54
2022/09/25 08:07:53;;;;;;;11.03;9.40;;;16.50;1.00;;;;;;4990550;28;20423;-53
2022/09/25 08:10:18;;;;;;;10.23;9.07;;;16.70;1.00;;;;;;4990822;28;20479;-53
2022/09/25 08:12:44;;;;;;;10.20;9.10;;;16.80;1.00;;;;;;4994294;28;20438;-56
2022/09/25 08:15:10;;;;;;;10.03;9.13;;;16.80;1.00;;;;;;4990145;28;20620;-53
2022/09/25 08:17:36;;;;;;;10.30;9.37;;;16.70;1.00;;;;;;4987922;28;20205;-54
2022/09/25 08:20:02;;;;;;;10.63;9.63;;;16.70;1.00;;;;;;4990282;28;20200;-54
2022/09/25 08:22:28;;;;;;;11.40;9.53;;;16.60;1.00;;;;;;4987567;28;20254;-55
2022/09/25 08:24:54;;;;;;;10.80;9.77;;;16.70;1.00;;;;;;4989207;28;20792;-53
2022/09/25 08:27:19;;;;;;;12.13;10.33;;;16.80;1.00;;;;;;4990048;28;20443;-55
2022/09/25 08:29:45;;;;;;;9.73;8.73;;;16.80;1.00;;;;;;4992493;28;20177;-55
2022/09/25 08:32:11;;;;;;;10.83;9.83;;;16.80;1.00;;;;;;4989661;28;20652;-53
2022/09/25 08:34:36;;;;;;;12.70;10.47;;;16.90;1.00;;;;;;4987071;28;20190;-54
2022/09/25 08:37:03;;;;;;;9.43;8.43;;;;;;;;;;4992189;28;20186;-54
2022/09/25 08:39:28;;;;;;;9.87;8.97;;;17.10;1.00;;;;;;4993614;28;20192;-55
2022/09/25 08:41:55;;;;;;;10.07;9.17;;;17.10;1.00;;;;;;4988477;28;20856;-55
2022/09/25 08:44:23;;;;;;;11.97;9.50;;;17.20;1.00;;;;;;4982643;28;20238;-53
2022/09/25 08:49:47;;;;;;;10.37;9.37;;;17.40;1.00;;;;;;4986523;28;20457;-53
2022/09/25 08:52:19;;;;;;;10.63;9.73;;;17.30;1.00;;;;;;4986095;28;20930;-55
2022/09/25 08:54:45;;;;;;;9.80;8.90;;;17.40;1.00;;;;;;4988477;28;20985;-54
2022/09/25 08:57:42;;;;;;;10.37;9.50;;;17.40;1.00;;;;;;4991309;28;20526;-54
2022/09/25 09:00:19;;;;;;;11.20;10.10;;;17.60;1.00;;;;;;4989298;28;20272;-54
2022/09/25 09:02:56;;;;;;;11.40;9.90;;;18.10;1.00;;;;;;4996934;28;20520;-55
2022/09/25 09:05:32;;;;;;;10.93;9.97;;;18.10;1.00;;;;;;4990047;28;21594;-53
2022/09/25 09:08:11;;;;;;;12.03;9.20;;;18.20;1.00;;;;;;4988369;28;20486;-54
2022/09/25 09:10:47;;;;;;;10.80;9.80;;;18.40;1.00;;;;;;4989974;28;20437;-55
2022/09/25 09:13:26;;;;;;;10.33;9.53;;;18.70;1.00;;;;;;4988942;28;20498;-55
2022/09/25 09:16:01;;;;;;;10.17;9.30;;;18.70;1.00;;;;;;4989961;28;20440;-54
2022/09/25 09:18:31;;;;;;;10.80;9.90;;;18.80;1.00;;;;;;4985981;28;20463;-55
2022/09/25 09:21:21;;;;;;;12.10;10.90;;;19.00;1.00;;;;;;4992553;28;20415;-55
2022/09/25 09:23:53;;;;;;;12.30;11.10;;;19.20;1.00;;;;;;4988048;28;20467;-56
2022/09/25 09:26:48;;;;;;;10.87;9.80;;;19.30;1.00;;;;;;4988988;28;20419;-54
2022/09/25 09:29:23;;;;;;;11.60;10.60;;;19.40;1.00;;;;;;4986913;28;20446;-53
2022/09/25 09:31:59;;;;;;;11.00;10.17;;;19.50;1.00;;;;;;4989055;28;20509;-55
2022/09/25 09:34:37;;;;;;;11.80;10.80;;;19.80;1.00;;;;;;4988081;28;20506;-54
2022/09/25 09:37:11;;;;;;;13.53;12.43;;;20.00;1.00;;;;;;4987189;28;20803;-54
2022/09/25 09:39:39;;;;;;;13.40;12.10;;;20.00;1.00;;;;;;4986835;28;20428;-54
2022/09/25 09:42:20;;;;;;;13.00;11.83;;;20.10;1.00;;;;;;4986815;28;20903;-56
2022/09/25 09:44:59;;;;;;;12.63;11.53;;;20.30;1.00;;;;;;4987899;28;20489;-54
2022/09/25 09:47:30;;;;;;;12.60;11.40;;;20.40;1.00;;;;;;4995333;28;20475;-53
2022/09/25 09:50:05;;;;;;;14.67;13.23;;;20.50;1.00;;;;;;4988514;28;20449;-52
2022/09/25 09:52:41;;;;;;;14.37;13.07;;;20.70;1.00;;;;;;4999810;28;20475;-54
2022/09/25 09:55:25;;;;;;;13.20;12.10;;;20.50;1.00;;;;;;4992088;28;20480;-55
2022/09/25 09:57:58;;;;;;;14.23;12.87;;;20.50;1.00;;;;;;4993471;28;20424;-55
2022/09/25 10:00:24;;;;;;;12.90;11.70;;;20.60;1.00;;;;;;4990404;28;20584;-54
2022/09/25 10:02:58;;;;;;;14.20;13.00;;;20.70;1.00;;;;;;4992543;28;20573;-54
2022/09/25 10:05:55;;;;;;;13.70;12.43;;;20.80;1.00;;;;;;4996482;28;20445;-56
2022/09/25 10:08:20;;;;;;;13.30;12.00;;;20.90;1.00;;;;;;4969981;28;20428;-56
2022/09/25 10:10:52;;;;;;;13.50;12.20;;;20.90;1.00;;;;;;4977036;28;20449;-54
2022/09/25 10:13:25;;;;;;;12.37;11.37;;;20.80;1.00;;;;;;4988267;28;20589;-55
2022/09/25 10:16:24;;;;;;;13.60;12.40;;;20.60;1.00;;;;;;4990751;28;20510;-54
2022/09/25 10:19:18;;;;;;;12.20;11.20;;;20.60;1.00;;;;;;4990817;28;20776;-51
2022/09/25 10:22:09;;;;;;;11.27;10.37;;;20.70;1.00;;;;;;4990912;28;20483;-54
2022/09/25 10:24:57;;;;;;;12.80;11.80;;;21.00;1.00;;;;;;4990948;28;20802;-53
2022/09/25 10:27:44;;;;;;;14.57;13.17;;;21.40;1.00;;;;;;4993151;28;20501;-56
2022/09/25 10:30:10;;;;;;;13.70;12.40;;;21.50;1.00;;;;;;4990268;28;20428;-54
2022/09/25 10:32:56;;;;;;;12.63;11.53;;;21.80;1.00;;;;;;4989922;28;20527;-56
2022/09/25 10:35:28;;;;;;;12.83;11.73;;;21.80;1.00;;;;;;4991241;28;20482;-54
2022/09/25 10:37:57;;;;;;;11.30;10.40;;;21.90;1.00;;;;;;4991330;28;20435;-56
2022/09/25 10:40:30;;;;;;;9.63;8.67;;;21.80;1.00;;;;;;4991839;28;20503;-54
2022/09/25 10:43:11;;;;;;;8.73;8.00;;;21.80;1.00;;;;;;4990573;28;20529;-54
2022/09/25 10:45:39;;;;;;;8.40;7.60;;;21.80;1.00;;;;;;4990699;28;20460;-55
2022/09/25 10:51:09;;;;;;;8.00;7.30;;;22.30;1.00;;;;;;4987456;28;20946;-54
2022/09/25 10:53:35;;;;;;;7.00;6.40;;;22.20;1.00;;;;;;4991086;28;20877;-53
2022/09/25 10:56:11;;;;;;;7.10;6.40;;;22.10;1.00;;;;;;4990578;28;21245;-54
2022/09/25 10:58:55;;;;;;;7.57;6.97;;;22.00;1.00;;;;;;4990359;28;20479;-56
2022/09/25 11:01:29;;;;;;;7.50;6.80;;;22.00;1.00;;;;;;4991301;28;20460;-53
2022/09/25 11:03:57;;;;;;;6.20;5.60;;;22.20;1.00;;;;;;4980791;28;20445;-54
2022/09/25 11:06:33;;;;;;;6.03;5.43;;;22.30;1.00;;;;;;5006103;28;20444;-54
2022/09/25 11:09:18;;;;;;;6.30;5.80;;;22.50;1.00;;;;;;4984874;28;20452;-53
2022/09/25 11:11:46;;;;;;;6.00;5.50;;;22.30;1.00;;;;;;4988867;28;20455;-57
2022/09/25 11:14:31;;;;;;;6.37;5.77;;;22.30;1.00;;;;;;4990459;28;20887;-55
2022/09/25 11:16:59;;;;;;;5.50;5.00;;;22.30;1.00;;;;;;4990639;28;20436;-56
2022/09/25 11:19:32;;;;;;;6.10;5.60;;;22.40;1.00;;;;;;4986990;28;20435;-55
2022/09/25 11:22:24;;;;;;;6.63;6.07;;;22.20;1.00;;;;;;4986633;28;20796;-54
2022/09/25 11:25:10;;;;;;;6.27;5.77;;;22.00;1.00;;;;;;4985876;28;20431;-54
2022/09/25 11:27:42;;;;;;;6.20;5.53;;;22.20;1.00;;;;;;4988501;28;20946;-56
2022/09/25 11:30:20;;;;;;;6.03;5.47;;;22.30;1.00;;;;;;4993160;28;20532;-54
2022/09/25 11:33:10;;;;;;;6.73;5.57;;;22.30;1.00;;;;;;4992243;28;20764;-54
2022/09/25 11:35:48;;;;;;;5.60;5.10;;;22.30;1.00;;;;;;4985926;28;20429;-53
2022/09/25 11:41:39;;;;;;;5.43;4.93;;;22.80;1.00;;;;;;4986043;28;20928;-56
2022/09/25 11:44:37;;;;;;;5.30;4.63;;;23.10;1.00;;;;;;4985027;28;20498;-54
2022/09/25 11:47:35;;;;;;;6.77;6.17;;;23.40;1.00;;;;;;4988862;28;20452;-56
2022/09/25 11:50:02;;;;;;;6.20;4.70;;;23.50;1.00;;;;;;4988078;28;20772;-55
2022/09/25 11:52:46;;;;;;;6.97;5.40;;;23.50;1.00;;;;;;4990619;28;20681;-55
2022/09/25 11:55:27;;;;;;;4.80;4.30;;;23.70;1.00;;;;;;4987990;28;20453;-55
2022/09/25 11:57:59;;;;;;;5.30;4.90;;;24.00;1.00;;;;;;4989812;28;20488;-54
2022/09/25 12:00:50;;;;;;;4.90;4.50;;;24.30;1.00;;;;;;4988963;28;20489;-52
2022/09/25 12:03:40;;;;;;;6.50;4.93;;;24.30;1.00;;;;;;4988892;28;20470;-55
2022/09/25 12:06:29;;;;;;;4.70;4.30;;;24.30;1.00;;;;;;4987766;28;20529;-55
2022/09/25 12:09:19;;;;;;;5.10;4.70;;;24.20;1.00;;;;;;4987800;28;20512;-53
2022/09/25 12:12:04;;;;;;;5.20;4.30;;;24.20;1.00;;;;;;4989343;28;20424;-57
2022/09/25 12:14:39;;;;;;;6.57;5.30;;;24.10;1.00;;;;;;4988387;28;20539;-54
2022/09/25 12:17:39;;;;;;;5.80;5.30;;;24.00;1.00;;;;;;4988249;28;20442;-55
2022/09/25 12:20:16;;;;;;;7.03;5.93;;;23.50;1.00;;;;;;4988012;28;20456;-55
2022/09/25 12:23:01;;;;;;;5.83;4.87;;;23.50;1.00;;;;;;4992642;28;20503;-56
2022/09/25 12:25:48;;;;;;;5.97;5.40;;;23.70;1.00;;;;;;4990645;28;20424;-55
2022/09/25 12:28:52;;;;;;;5.87;5.30;;;23.90;1.00;;;;;;4989637;28;20929;-53
2022/09/25 12:31:18;;;;;;;6.13;5.57;;;24.10;1.00;;;;;;4900549;29;20855;-54
2022/09/25 12:33:58;;;;;;;7.40;5.83;;;24.10;1.00;;;;;;4969387;28;20601;-54
2022/09/25 12:36:35;;;;;;;6.53;5.70;;;23.90;1.00;;;;;;4986231;28;20190;-56
2022/09/25 12:39:15;;;;;;;6.97;6.37;;;23.60;1.00;;;;;;4983949;28;20431;-53
2022/09/25 12:41:47;;;;;;;7.70;7.00;;;23.30;1.00;;;;;;4989804;28;20758;-55
2022/09/25 12:44:40;;;;;;;8.27;7.30;;;22.90;1.00;;;;;;4995200;28;20544;-59
2022/09/25 12:47:15;;;;;;;7.73;7.13;;;22.90;1.00;;;;;;4988979;28;20452;-58
2022/09/25 12:50:15;;;;;;;7.60;7.00;;;22.90;1.00;;;;;;4992538;28;20520;-58
2022/09/25 12:53:21;;;;;;;7.57;6.97;;;22.70;1.00;;;;;;4989909;28;20491;-58
2022/09/25 12:56:08;;;;;;;7.13;6.50;;;22.70;1.00;;;;;;4906718;29;20446;-59
2022/09/25 12:59:02;;;;;;;6.90;6.30;;;22.70;1.00;;;;;;4986602;28;20428;-58
2022/09/25 13:01:44;;;;;;;8.03;7.30;;;22.70;1.00;;;;;;4984106;28;20432;-58
2022/09/25 13:04:22;;;;;;;7.30;6.70;;;23.00;1.00;;;;;;4985761;28;20475;-59
2022/09/25 13:07:02;;;;;;;6.70;6.20;;;22.90;1.00;;;;;;4990075;28;20942;-57
2022/09/25 13:09:47;;;;;;;8.13;7.43;;;23.00;1.00;;;;;;4989010;28;20459;-59
2022/09/25 13:12:34;;;;;;;8.03;7.33;;;23.20;1.00;;;;;;4989654;28;21070;-58
2022/09/25 13:14:59;;;;;;;7.60;7.00;;;23.10;1.00;;;;;;4989586;28;20500;-58
2022/09/25 13:17:25;;;;;;;6.43;5.80;;;23.20;1.00;;;;;;4983642;28;20458;-58
2022/09/25 13:19:50;;;;;;;6.87;6.20;;;23.30;1.00;;;;;;4988542;28;20532;-59
2022/09/25 13:22:23;;;;;;;7.63;6.37;;;23.60;1.00;;;;;;4993164;28;20179;-58
2022/09/25 13:25:05;;;;;;;7.50;6.90;;;23.90;1.00;;;;;;4998963;28;20289;-59
2022/09/25 13:27:41;;;;;;;9.03;8.17;;;24.20;1.00;;;;;;4990474;28;20509;-58
2022/09/25 13:30:19;;;;;;;8.00;7.00;;;23.90;1.00;;;;;;4993387;28;20450;-58
2022/09/25 13:32:49;;;;;;;7.93;7.23;;;23.70;1.00;;;;;;4989337;28;20473;-58